Meteoalarm - Portugal e Ilhas:

Avisos Meteorológicos para Portugal e Ilhas


Visite-nos no Facebook:

Visite-nos no Facebook


Madeira Webcams:


Grupo MeteoRAM Facebook:

Junte-se ao melhor e mais completo grupo de Meteorologia da Região Autónoma da Madeira



Situação meteorológica que não inspira cuidado.    Sem avisos

Weather Underground Histórico da Estação

Diário Resumo para Novembro 14, 2018 Unidades:  Métrico    Inglês   Ambos
« Anterior Dia
Seguinte Dia »
Diário Semanal Mensal Anual Personalizado
  Atualmente: Alto: Baixo: Média:
Temperatura: 20.2 °C -17.8 °C 13.8 °C 15.3 °C
Ponto de orvalho: 11.2 °C -17.8 °C 7.3 °C 8.5 °C
Humidade: 56 % Humidity % 56 % 63 %
Velocidade do Vento: 2.6 km/h 0 km/h 0 km/h 4 km/h
Rajada de vento: 13.4 km/h 0 km/h - -
Vento:SSE - - SSW
Pressão Atmosférica: 1018.8 hPa 0 hPa 1018.2 hPa -
Precipitação: 0 mm      
Historical Graphs
 
 
Dados Tabulares para Novembro 14, 2018
Hora Temperatura Ponto de orvalho Pressão Atmosférica Vento Velocidade do Vento Rajada de vento Humidade Taxa de Precipitação (Por hora)
-17.8 °C -17.8 °C 0 hPa Calm     Humidity % 0 mm
00:05 18 °C 9.1 °C 1021.6 hPa Calm   6.1 km/h 56 % 0 mm
00:09 17.8 °C 8.9 °C 1021.6 hPa Calm   6.1 km/h 56 % 0 mm
00:15 17.7 °C 8.8 °C 1021.6 hPa Calm   6.1 km/h 56 % 0 mm
00:19 17.6 °C 8.7 °C 1021.6 hPa Calm   3.5 km/h 56 % 0 mm
00:24 17.4 °C 8.6 °C 1021.2 hPa Calm   6.1 km/h 56 % 0 mm
00:29 17.3 °C 8.4 °C 1021.2 hPa North 3.5 km/h 8.7 km/h 56 % 0 mm
00:34 17.3 °C 8.4 °C 1021.2 hPa Calm   8.7 km/h 56 % 0 mm
00:39 17.1 °C 8.3 °C 1021.2 hPa NW 1.1 km/h 6.1 km/h 56 % 0 mm
00:44 17 °C 8.2 °C 1021.2 hPa NW 2.6 km/h 6.1 km/h 56 % 0 mm
00:49 16.8 °C 8 °C 1021.2 hPa NW 1.1 km/h 6.1 km/h 56 % 0 mm
00:54 16.6 °C 7.8 °C 1021.2 hPa NW 2.6 km/h 6.1 km/h 56 % 0 mm
00:59 16.5 °C 7.7 °C 1021.2 hPa Calm   5 km/h 56 % 0 mm
01:04 16.3 °C 7.5 °C 1021.2 hPa Calm   5 km/h 56 % 0 mm
01:09 16.1 °C 7.3 °C 1020.9 hPa NNW 3.5 km/h 7.2 km/h 56 % 0 mm
01:14 15.9 °C 7.4 °C 1020.9 hPa NNW 5 km/h 8.7 km/h 57 % 0 mm
01:19 15.7 °C 7.7 °C 1020.9 hPa NNW 5 km/h 9.7 km/h 59 % 0 mm
01:25 15.6 °C 7.6 °C 1020.9 hPa NW 6.1 km/h 9.7 km/h 59 % 0 mm
01:29 15.5 °C 7.6 °C 1020.5 hPa NW 3.5 km/h 8.7 km/h 59 % 0 mm
01:34 15.4 °C 7.7 °C 1020.5 hPa NNW 6.1 km/h 11.1 km/h 60 % 0 mm
01:39 15.4 °C 7.7 °C 1020.5 hPa NNW 6.1 km/h 11.1 km/h 60 % 0 mm
01:44 15.4 °C 7.7 °C 1020.5 hPa North 6.1 km/h 11.1 km/h 60 % 0 mm
01:49 15.2 °C 7.7 °C 1020.2 hPa North 3.5 km/h 11.1 km/h 61 % 0 mm
01:54 15.2 °C 7.7 °C 1020.2 hPa North 8.7 km/h 13.4 km/h 61 % 0 mm
01:59 15.1 °C 7.7 °C 1020.2 hPa NNW 3.5 km/h 13.4 km/h 61 % 0 mm
02:04 15.1 °C 7.9 °C 1020.2 hPa NNW 5 km/h 13.4 km/h 62 % 0 mm
02:10 15.1 °C 7.9 °C 1020.2 hPa North 6.1 km/h 12.2 km/h 62 % 0 mm
02:14 15.1 °C 7.9 °C 1019.9 hPa North 6.1 km/h 9.7 km/h 62 % 0 mm
02:19 15.1 °C 7.9 °C 1019.9 hPa NNW 5 km/h 9.7 km/h 62 % 0 mm
02:24 15.1 °C 7.9 °C 1019.9 hPa North 6.1 km/h 11.1 km/h 62 % 0 mm
02:29 15.1 °C 8.1 °C 1019.9 hPa North 3.5 km/h 11.1 km/h 63 % 0 mm
02:34 15 °C 8 °C 1019.9 hPa NNW 5 km/h 11.1 km/h 63 % 0 mm
02:39 15 °C 8 °C 1019.9 hPa North 3.5 km/h 11.1 km/h 63 % 0 mm
02:44 15 °C 8.3 °C 1019.5 hPa North 5 km/h 12.2 km/h 64 % 0 mm
02:49 15 °C 8.3 °C 1019.5 hPa NNE 3.5 km/h 12.2 km/h 64 % 0 mm
02:54 14.9 °C 8.2 °C 1019.5 hPa NNE 5 km/h 11.1 km/h 64 % 0 mm
02:59 14.9 °C 8.2 °C 1019.5 hPa North 7.2 km/h 11.1 km/h 64 % 0 mm
03:05 14.9 °C 8.2 °C 1019.5 hPa North 6.1 km/h 15.8 km/h 64 % 0 mm
03:09 14.9 °C 8.4 °C 1019.5 hPa North 6.1 km/h 15.8 km/h 65 % 0 mm
03:14 14.7 °C 8.2 °C 1019.2 hPa North 7.2 km/h 15.8 km/h 65 % 0 mm
03:19 14.8 °C 8.3 °C 1019.2 hPa NNE 7.2 km/h 12.2 km/h 65 % 0 mm
03:25 14.8 °C 8.3 °C 1019.2 hPa North 6.1 km/h 12.2 km/h 65 % 0 mm
03:29 14.8 °C 8.3 °C 1018.8 hPa North 6.1 km/h 12.2 km/h 65 % 0 mm
03:34 14.8 °C 8.3 °C 1018.8 hPa North 5 km/h 12.2 km/h 65 % 0 mm
03:39 14.8 °C 8.3 °C 1018.8 hPa North 5 km/h 12.2 km/h 65 % 0 mm
03:45 14.7 °C 8.2 °C 1018.8 hPa North 6.1 km/h 11.1 km/h 65 % 0 mm
03:49 14.8 °C 8.3 °C 1018.8 hPa North 7.2 km/h 12.2 km/h 65 % 0 mm
03:55 14.7 °C 8.4 °C 1018.8 hPa North 3.5 km/h 12.2 km/h 66 % 0 mm
04:00 14.7 °C 8.4 °C 1018.8 hPa North 3.5 km/h 12.2 km/h 66 % 0 mm
04:05 14.7 °C 8.4 °C 1018.8 hPa North 3.5 km/h 12.2 km/h 66 % 0 mm
04:10 14.7 °C 8.4 °C 1018.8 hPa North 5 km/h 8.7 km/h 66 % 0 mm
04:14 14.7 °C 8.4 °C 1018.8 hPa Calm   7.2 km/h 66 % 0 mm
04:20 14.7 °C 8.4 °C 1018.8 hPa North 3.5 km/h 8.7 km/h 66 % 0 mm
04:25 14.6 °C 8.3 °C 1018.8 hPa NNW 3.5 km/h 8.7 km/h 66 % 0 mm
04:29 14.6 °C 8.6 °C 1018.8 hPa NNW 5 km/h 11.1 km/h 67 % 0 mm
04:34 14.6 °C 8.6 °C 1018.5 hPa North 5 km/h 11.1 km/h 67 % 0 mm
04:40 14.5 °C 8.4 °C 1018.5 hPa North 6.1 km/h 12.2 km/h 67 % 0 mm
04:44 14.6 °C 8.6 °C 1018.5 hPa North 6.1 km/h 12.2 km/h 67 % 0 mm
04:49 14.5 °C 8.4 °C 1018.5 hPa North 6.1 km/h 12.2 km/h 67 % 0 mm
04:54 14.5 °C 8.4 °C 1018.5 hPa North 9.7 km/h 14.8 km/h 67 % 0 mm
04:59 14.4 °C 8.3 °C 1018.5 hPa North 5 km/h 14.8 km/h 67 % 0 mm
05:05 14.4 °C 8.3 °C 1018.5 hPa North 3.5 km/h 14.8 km/h 67 % 0 mm
05:10 14.3 °C 8.1 °C 1018.5 hPa NNW 3.5 km/h 9.7 km/h 66 % 0 mm
05:15 14.3 °C 8.1 °C 1018.5 hPa North 3.5 km/h 9.7 km/h 66 % 0 mm
05:20 14.3 °C 8.1 °C 1018.2 hPa North 2.6 km/h 9.7 km/h 66 % 0 mm
05:24 14.3 °C 8.1 °C 1018.2 hPa North 2.6 km/h 7.2 km/h 66 % 0 mm
05:30 14.3 °C 8.1 °C 1018.5 hPa North 2.6 km/h 7.2 km/h 66 % 0 mm
05:34 14.3 °C 8.1 °C 1018.5 hPa Calm   7.2 km/h 66 % 0 mm
05:39 14.2 °C 7.9 °C 1018.2 hPa North 3.5 km/h 8.7 km/h 66 % 0 mm
05:45 14.3 °C 8.1 °C 1018.5 hPa North 2.6 km/h 8.7 km/h 66 % 0 mm
05:49 14.3 °C 8.1 °C 1018.2 hPa NNE 3.5 km/h 8.7 km/h 66 % 0 mm
05:55 14.2 °C 8.2 °C 1018.2 hPa NNE 3.5 km/h 8.7 km/h 67 % 0 mm
05:59 14.2 °C 8.2 °C 1018.2 hPa North 3.5 km/h 8.7 km/h 67 % 0 mm
06:05 14.2 °C 8.2 °C 1018.2 hPa North 6.1 km/h 8.7 km/h 67 % 0 mm
06:10 14.2 °C 8.2 °C 1018.2 hPa North 7.2 km/h 12.2 km/h 67 % 0 mm
06:15 14.2 °C 8.2 °C 1018.5 hPa North 6.1 km/h 12.2 km/h 67 % 0 mm
06:19 14.2 °C 7.9 °C 1018.2 hPa North 6.1 km/h 13.4 km/h 66 % 0 mm
06:25 14.2 °C 7.9 °C 1018.5 hPa North 3.5 km/h 13.4 km/h 66 % 0 mm
06:30 14.1 °C 7.8 °C 1018.5 hPa North 5 km/h 13.4 km/h 66 % 0 mm
06:35 14.1 °C 7.8 °C 1018.5 hPa North 1.1 km/h 9.7 km/h 66 % 0 mm
06:40 14 °C 8 °C 1018.5 hPa North 5 km/h 9.7 km/h 67 % 0 mm
06:44 14 °C 8 °C 1018.5 hPa North 5 km/h 9.7 km/h 67 % 0 mm
06:49 14 °C 8 °C 1018.5 hPa NNE 5 km/h 12.2 km/h 67 % 0 mm
06:54 14 °C 8 °C 1018.5 hPa NNE 3.5 km/h 12.2 km/h 67 % 0 mm
06:59 14 °C 8 °C 1018.5 hPa NNE 3.5 km/h 11.1 km/h 67 % 0 mm
07:05 14 °C 8 °C 1018.5 hPa North 2.6 km/h 7.2 km/h 67 % 0 mm
07:09 13.9 °C 7.9 °C 1018.5 hPa North 6.1 km/h 8.7 km/h 67 % 0 mm
07:14 13.8 °C 7.8 °C 1018.8 hPa NNE 3.5 km/h 9.7 km/h 67 % 0 mm
07:20 13.9 °C 7.9 °C 1018.8 hPa NNE 5 km/h 9.7 km/h 67 % 0 mm
07:25 13.9 °C 8.1 °C 1018.8 hPa North 5 km/h 11.1 km/h 68 % 0 mm
07:30 13.9 °C 8.1 °C 1018.8 hPa North 3.5 km/h 11.1 km/h 68 % 0 mm
07:35 13.9 °C 8.1 °C 1018.8 hPa North 3.5 km/h 11.1 km/h 68 % 0 mm
07:39 13.9 °C 8.1 °C 1018.8 hPa North 2.6 km/h 8.7 km/h 68 % 0 mm
07:44 13.9 °C 8.1 °C 1018.8 hPa North 2.6 km/h 9.7 km/h 68 % 0 mm
07:49 13.9 °C 8.1 °C 1018.8 hPa NNE 2.6 km/h 9.7 km/h 68 % 0 mm
07:55 14 °C 8.4 °C 1018.8 hPa NNE 3.5 km/h 8.7 km/h 69 % 0 mm
08:00 14.1 °C 8.5 °C 1018.8 hPa North 5 km/h 11.1 km/h 69 % 0 mm
08:05 14.2 °C 8.6 °C 1018.8 hPa North 5 km/h 11.1 km/h 69 % 0 mm
08:09 14.3 °C 8.7 °C 1018.8 hPa North 5 km/h 11.1 km/h 69 % 0 mm
08:14 14.4 °C 9 °C 1018.8 hPa NNE 3.5 km/h 9.7 km/h 70 % 0 mm
08:19 14.6 °C 9.2 °C 1019.2 hPa NNE 5 km/h 11.1 km/h 70 % 0 mm
08:25 14.7 °C 9.3 °C 1019.2 hPa NNE 3.5 km/h 11.1 km/h 70 % 0 mm
08:29 15 °C 9.4 °C 1019.2 hPa North 3.5 km/h 9.7 km/h 69 % 0 mm
08:34 15.2 °C 9.6 °C 1019.2 hPa North 3.5 km/h 9.7 km/h 69 % 0 mm
08:40 15.3 °C 9.7 °C 1019.2 hPa North 2.6 km/h 8.7 km/h 69 % 0 mm
08:44 15.6 °C 9.9 °C 1019.2 hPa North 3.5 km/h 8.7 km/h 69 % 0 mm
08:50 15.7 °C 9.8 °C 1019.2 hPa NNE 6.1 km/h 12.2 km/h 68 % 0 mm
08:55 15.9 °C 10 °C 1019.2 hPa NNE 5 km/h 12.2 km/h 68 % 0 mm
09:00 16 °C 10.1 °C 1018.8 hPa NNE 6.1 km/h 11.1 km/h 68 % 0 mm
09:04 16.1 °C 10.2 °C 1019.2 hPa NNE 6.1 km/h 11.1 km/h 68 % 0 mm
09:10 16.3 °C 10.4 °C 1018.8 hPa NNE 6.1 km/h 9.7 km/h 68 % 0 mm
09:14 16.5 °C 10.6 °C 1018.8 hPa NNE 3.5 km/h 9.7 km/h 68 % 0 mm
09:19 16.5 °C 10.6 °C 1018.8 hPa NNE 2.6 km/h 9.7 km/h 68 % 0 mm
09:25 17 °C 10.8 °C 1018.8 hPa North 3.5 km/h 7.2 km/h 67 % 0 mm
09:30 17.3 °C 10.9 °C 1018.8 hPa NNE 1.1 km/h 7.2 km/h 66 % 0 mm
09:34 17.5 °C 10.8 °C 1018.8 hPa NNE 6.1 km/h 8.7 km/h 65 % 0 mm
09:40 17.7 °C 10.8 °C 1018.8 hPa North 1.1 km/h 8.7 km/h 64 % 0 mm
09:45 17.9 °C 10.8 °C 1018.8 hPa North 2.6 km/h 8.7 km/h 63 % 0 mm
09:50 18.3 °C 10.7 °C 1018.8 hPa NNW 2.6 km/h 6.1 km/h 61 % 0 mm
09:55 18.5 °C 10.6 °C 1018.8 hPa North 2.6 km/h 8.7 km/h 60 % 0 mm
09:59 18.8 °C 10.4 °C 1018.8 hPa NNW 2.6 km/h 8.7 km/h 58 % 0 mm
10:04 18.9 °C 10.2 °C 1018.8 hPa NNW 2.6 km/h 7.2 km/h 57 % 0 mm
10:09 19.2 °C 10.5 °C 1018.8 hPa NNW 2.6 km/h 7.2 km/h 57 % 0 mm
10:15 19.3 °C 10.3 °C 1018.8 hPa NW 3.5 km/h 8.7 km/h 56 % 0 mm
10:20 19.3 °C 10.3 °C 1018.8 hPa NW 2.6 km/h 11.1 km/h 56 % 0 mm
10:24 19.4 °C 10.7 °C 1018.8 hPa Calm   11.1 km/h 57 % 0 mm
10:29 19.8 °C 10.8 °C 1018.8 hPa SSE 3.5 km/h 7.2 km/h 56 % 0 mm
10:34 20 °C 10.9 °C 1018.8 hPa ESE 8.7 km/h 14.8 km/h 56 % 0 mm
10:40 20.1 °C 11.1 °C 1018.8 hPa ESE 2.6 km/h 14.8 km/h 56 % 0 mm
10:44 20.4 °C 11.3 °C 1018.8 hPa SE 3.5 km/h 12.2 km/h 56 % 0 mm
10:49 20.2 °C 11.2 °C 1018.8 hPa SSE 2.6 km/h 13.4 km/h 56 % 0 mm
MeteoMachico
Cumprimentos de Weather Underground - 2 mb

Script original por  Jim McMurry - jmcmurry@mwt.net Adaptado para o modelo por  Wim van der Kuil - Leuven-Template.eu

Equipamento que usamos:

Estação Meteorológica
Weatherwise ws-1080

IPCAM
Dericam H502W

Servidor
Digital Ocean

Weatherwise ws-1080

Dericam H502W

Digital Ocean